Severy, Kansas
Current Conditions -  °F | °C
As of 6:35 AM on Thursday 23 Oct 2014 (Local Time) from KEQA Reporting Station
Haze Haze  
Wind Chill: 63°   Ceiling: 500
Heat Index: 63°   Visibility: 5mi
Dew Point: 61°   Wind: 0mph
Humidity: 94%   Direction: NA
Pressure: 30.08"   Gusts: NA
Location:  37.62°N, 96.23°W
Report Text: KEQA 231135Z AUTO 00000KT 5SM BR BKN005 OVC015 17/16 A3008 RMK AO2
Loading
Personal Weather Stations






























Interactive Weather Map
Tropical Storm Tracking
New forecast layout! Learn more

10-Day Weather Forecast

Advertisements
Track Severe Weather on mobile